createdAt,value
2018-09-09T00:00:02.294Z,17.80
2018-09-09T00:02:29.823Z,17.90
2018-09-09T00:04:57.346Z,17.90
2018-09-09T00:07:24.985Z,17.90
2018-09-09T00:09:52.568Z,17.90
2018-09-09T00:12:20.478Z,17.80
2018-09-09T00:14:48.218Z,17.70
2018-09-09T00:17:15.839Z,17.70
2018-09-09T00:19:43.357Z,17.70
2018-09-09T00:22:11.032Z,17.80
2018-09-09T00:24:38.475Z,17.90
2018-09-09T00:27:06.159Z,17.90
2018-09-09T00:29:33.804Z,18.10
2018-09-09T00:32:01.525Z,18.10
2018-09-09T00:34:28.996Z,18.10
2018-09-09T00:36:56.575Z,18.20
2018-09-09T00:39:24.123Z,18.10
2018-09-09T00:41:51.670Z,18.00
2018-09-09T00:44:19.267Z,18.00
2018-09-09T00:46:46.911Z,17.90
2018-09-09T00:49:20.161Z,17.80
2018-09-09T00:51:53.324Z,17.80
2018-09-09T00:54:20.852Z,17.80
2018-09-09T00:56:48.371Z,17.70
2018-09-09T00:59:16.028Z,17.80
2018-09-09T01:01:43.517Z,17.80
2018-09-09T01:04:11.110Z,17.80
2018-09-09T01:06:38.691Z,17.70
2018-09-09T01:09:08.334Z,17.70
2018-09-09T01:11:36.554Z,17.70
2018-09-09T01:14:04.772Z,17.60
2018-09-09T01:16:32.597Z,17.60
2018-09-09T01:19:00.245Z,17.40
2018-09-09T01:21:27.843Z,17.30
2018-09-09T01:23:55.592Z,17.20
2018-09-09T01:26:23.239Z,17.20
2018-09-09T01:28:50.759Z,17.00
2018-09-09T01:31:18.386Z,17.10
2018-09-09T01:33:45.880Z,17.20
2018-09-09T01:36:13.521Z,17.30
2018-09-09T01:38:42.717Z,17.20
2018-09-09T01:41:11.933Z,17.10
2018-09-09T01:43:39.522Z,17.10
2018-09-09T01:46:07.005Z,17.10
2018-09-09T01:48:34.511Z,17.10
2018-09-09T01:51:01.972Z,17.40
2018-09-09T01:53:29.441Z,17.30
2018-09-09T01:55:57.036Z,17.30
2018-09-09T01:58:24.568Z,17.20
2018-09-09T02:00:52.162Z,17.10
2018-09-09T02:05:48.268Z,17.00
2018-09-09T02:08:16.879Z,17.20
2018-09-09T02:10:45.880Z,17.40
2018-09-09T02:13:14.411Z,17.30
2018-09-09T02:15:42.008Z,17.10
2018-09-09T02:20:37.016Z,16.90
2018-09-09T02:23:04.782Z,16.70
2018-09-09T02:25:32.276Z,16.70
2018-09-09T02:27:59.774Z,16.70
2018-09-09T02:30:27.779Z,16.60
2018-09-09T02:32:55.277Z,16.50
2018-09-09T02:35:23.075Z,16.60
2018-09-09T02:37:50.535Z,16.50
2018-09-09T02:40:18.234Z,16.50
2018-09-09T02:42:45.706Z,16.50
2018-09-09T02:45:13.208Z,16.40
2018-09-09T02:47:40.725Z,16.40
2018-09-09T02:50:08.188Z,16.40
2018-09-09T02:52:35.712Z,16.30
2018-09-09T02:55:04.098Z,16.30
2018-09-09T02:57:32.226Z,16.40
2018-09-09T02:59:59.881Z,16.50
2018-09-09T03:02:27.533Z,16.50
2018-09-09T03:04:54.982Z,16.60
2018-09-09T03:07:22.683Z,16.70
2018-09-09T03:09:50.226Z,16.70
2018-09-09T03:12:17.686Z,16.90
2018-09-09T03:14:45.275Z,16.70
2018-09-09T03:17:13.305Z,16.70
2018-09-09T03:19:40.874Z,16.70
2018-09-09T03:22:08.331Z,14.40
2018-09-09T03:24:35.899Z,16.70
2018-09-09T03:27:03.460Z,16.70
2018-09-09T03:29:31.089Z,16.60
2018-09-09T03:31:58.536Z,16.60
2018-09-09T03:34:25.979Z,16.50
2018-09-09T03:36:53.424Z,16.60
2018-09-09T03:39:20.936Z,16.50
2018-09-09T03:41:48.511Z,16.30
2018-09-09T03:44:15.985Z,16.20
2018-09-09T03:46:43.452Z,16.00
2018-09-09T03:49:11.129Z,16.10
2018-09-09T03:51:38.863Z,16.20
2018-09-09T03:54:06.407Z,16.30
2018-09-09T03:56:33.912Z,16.40
2018-09-09T03:59:01.493Z,16.50
2018-09-09T04:01:29.045Z,16.50
2018-09-09T04:03:56.737Z,16.30
2018-09-09T04:06:24.812Z,16.30
2018-09-09T04:08:52.318Z,15.90
2018-09-09T04:11:20.655Z,15.80
2018-09-09T04:13:48.156Z,15.70
2018-09-09T04:16:16.139Z,15.70
2018-09-09T04:18:43.678Z,15.90
2018-09-09T04:21:11.094Z,16.10
2018-09-09T04:23:38.922Z,16.10
2018-09-09T04:26:06.837Z,16.30
2018-09-09T04:28:34.400Z,16.40
2018-09-09T04:31:02.125Z,16.40
2018-09-09T04:33:29.584Z,16.40
2018-09-09T04:35:57.034Z,16.30
2018-09-09T04:38:24.487Z,16.00
2018-09-09T04:40:52.040Z,16.20
2018-09-09T04:43:19.616Z,16.40
2018-09-09T04:45:47.117Z,16.30
2018-09-09T04:48:14.638Z,16.30
2018-09-09T04:50:42.501Z,16.20
2018-09-09T04:53:10.063Z,16.00
2018-09-09T04:55:37.952Z,16.00
2018-09-09T04:58:05.418Z,15.70
2018-09-09T05:00:33.701Z,15.70
2018-09-09T05:03:01.346Z,15.60
2018-09-09T05:05:29.273Z,15.60
2018-09-09T05:07:57.395Z,15.50
2018-09-09T05:10:24.861Z,15.50
2018-09-09T05:12:52.319Z,15.70
2018-09-09T05:15:21.147Z,15.90
2018-09-09T05:17:48.652Z,16.00
2018-09-09T05:20:17.085Z,16.00
2018-09-09T05:22:44.563Z,16.10
2018-09-09T05:25:12.077Z,16.10
2018-09-09T05:27:39.597Z,16.10
2018-09-09T05:30:07.736Z,16.20
2018-09-09T05:32:35.208Z,16.20
2018-09-09T05:35:02.912Z,16.20
2018-09-09T05:37:30.487Z,16.30
2018-09-09T05:39:57.992Z,16.50
2018-09-09T05:42:25.679Z,16.50
2018-09-09T05:44:53.137Z,16.60
2018-09-09T05:47:20.774Z,16.60
2018-09-09T05:49:48.255Z,16.70
2018-09-09T05:52:15.975Z,16.60
2018-09-09T05:54:43.576Z,16.50
2018-09-09T05:57:11.129Z,16.60
2018-09-09T05:59:38.610Z,16.60
2018-09-09T06:02:06.092Z,16.30
2018-09-09T06:04:33.758Z,16.50
2018-09-09T06:07:01.225Z,16.50
2018-09-09T06:09:28.767Z,16.60
2018-09-09T06:11:57.898Z,16.70
2018-09-09T06:14:26.218Z,16.70
2018-09-09T06:19:22.053Z,16.90
2018-09-09T06:21:50.692Z,16.90
2018-09-09T06:24:18.216Z,17.00
2018-09-09T06:26:45.736Z,16.90
2018-09-09T06:29:14.080Z,17.00
2018-09-09T06:31:42.889Z,17.00
2018-09-09T06:34:10.532Z,16.90
2018-09-09T06:36:38.843Z,17.00
2018-09-09T06:41:36.488Z,17.20
2018-09-09T06:44:04.008Z,17.00
2018-09-09T06:48:59.065Z,16.90
2018-09-09T06:51:27.090Z,17.10
2018-09-09T06:53:54.659Z,17.00
2018-09-09T06:56:22.870Z,16.80
2018-09-09T06:58:50.732Z,17.00
2018-09-09T07:01:20.207Z,17.30
2018-09-09T07:03:48.064Z,17.60
2018-09-09T07:06:15.490Z,17.80
2018-09-09T07:08:45.012Z,18.10
2018-09-09T07:11:12.701Z,18.20
2018-09-09T07:13:40.256Z,18.40
2018-09-09T07:16:07.726Z,18.40
2018-09-09T07:18:35.331Z,18.50
2018-09-09T07:21:02.940Z,18.50
2018-09-09T07:23:30.610Z,18.80
2018-09-09T07:25:59.252Z,19.10
2018-09-09T07:28:26.796Z,19.20
2018-09-09T07:30:54.295Z,19.20
2018-09-09T07:33:21.993Z,19.20
2018-09-09T07:35:49.684Z,19.20
2018-09-09T07:38:17.289Z,19.50
2018-09-09T07:40:44.950Z,19.50
2018-09-09T07:43:12.495Z,19.90
2018-09-09T07:45:40.658Z,20.20
2018-09-09T07:48:08.133Z,20.30
2018-09-09T07:50:35.838Z,20.40
2018-09-09T07:53:03.937Z,20.30
2018-09-09T07:55:31.392Z,20.50
2018-09-09T07:57:58.998Z,20.70
2018-09-09T08:00:26.580Z,20.90
2018-09-09T08:02:54.073Z,21.50
2018-09-09T08:05:21.572Z,21.50
2018-09-09T08:07:49.125Z,22.00
2018-09-09T08:10:16.637Z,22.20
2018-09-09T08:12:44.233Z,22.40
2018-09-09T08:15:11.805Z,22.30
2018-09-09T08:17:39.505Z,22.50
2018-09-09T08:20:07.073Z,22.20
2018-09-09T08:22:34.587Z,22.00
2018-09-09T08:25:02.128Z,21.90
2018-09-09T08:27:30.090Z,22.00
2018-09-09T08:29:57.667Z,22.20
2018-09-09T08:32:25.168Z,22.40
2018-09-09T08:37:20.121Z,22.90
2018-09-09T08:39:47.618Z,22.60
2018-09-09T08:42:15.113Z,22.30
2018-09-09T08:44:42.625Z,22.50
2018-09-09T08:47:10.175Z,22.60
2018-09-09T08:49:37.674Z,22.40
2018-09-09T08:52:05.394Z,22.60
2018-09-09T08:54:32.837Z,23.00
2018-09-09T08:57:00.387Z,23.20
2018-09-09T08:59:27.971Z,23.80
2018-09-09T09:01:55.453Z,23.90
2018-09-09T09:04:22.996Z,24.50
2018-09-09T09:06:50.486Z,24.50
2018-09-09T09:09:18.037Z,24.40
2018-09-09T09:11:45.566Z,23.90
2018-09-09T09:14:13.046Z,23.70
2018-09-09T09:19:08.027Z,23.00
2018-09-09T09:21:35.568Z,22.70
2018-09-09T09:24:03.100Z,22.70
2018-09-09T09:26:30.762Z,22.80
2018-09-09T09:31:25.669Z,23.10
2018-09-09T09:33:53.120Z,23.00
2018-09-09T09:36:20.785Z,22.90
2018-09-09T09:38:48.249Z,23.00
2018-09-09T09:41:15.717Z,22.90
2018-09-09T09:43:43.202Z,22.70
2018-09-09T09:46:10.736Z,22.70
2018-09-09T09:48:38.507Z,22.70
2018-09-09T09:51:06.040Z,22.70
2018-09-09T09:56:00.996Z,22.60
2018-09-09T09:58:28.476Z,22.40
2018-09-09T10:00:58.011Z,22.50
2018-09-09T10:03:25.551Z,22.60
2018-09-09T10:10:48.075Z,22.70
2018-09-09T10:13:15.625Z,22.70
2018-09-09T10:15:43.137Z,22.60
2018-09-09T10:18:10.626Z,22.90
2018-09-09T10:20:38.109Z,23.30
2018-09-09T10:23:05.685Z,24.60
2018-09-09T10:25:33.101Z,24.80
2018-09-09T10:28:01.203Z,25.10
2018-09-09T10:30:28.738Z,25.20
2018-09-09T10:32:56.227Z,25.50
2018-09-09T10:35:24.257Z,25.60
2018-09-09T10:37:51.788Z,25.60
2018-09-09T10:40:19.254Z,25.80
2018-09-09T10:42:46.757Z,26.00
2018-09-09T10:45:14.624Z,26.10
2018-09-09T10:47:42.330Z,26.30
2018-09-09T10:50:09.929Z,26.50
2018-09-09T10:52:38.317Z,26.70
2018-09-09T10:55:05.912Z,26.70
2018-09-09T10:57:33.414Z,27.00
2018-09-09T11:00:01.010Z,26.90
2018-09-09T11:02:28.551Z,26.80
2018-09-09T11:04:56.096Z,27.00
2018-09-09T11:07:23.618Z,27.10
2018-09-09T11:09:51.163Z,27.10
2018-09-09T11:12:22.978Z,27.40
2018-09-09T11:14:50.790Z,27.50
2018-09-09T11:17:18.304Z,27.60
2018-09-09T11:19:45.964Z,27.70
2018-09-09T11:22:14.513Z,27.60
2018-09-09T11:24:42.035Z,27.90
2018-09-09T11:27:09.764Z,28.20
2018-09-09T11:29:37.244Z,28.30
2018-09-09T11:32:04.804Z,28.70
2018-09-09T11:34:32.285Z,28.70
2018-09-09T11:36:59.805Z,28.60
2018-09-09T11:39:27.308Z,29.10
2018-09-09T11:41:54.856Z,29.40
2018-09-09T11:44:22.431Z,29.60
2018-09-09T11:46:50.000Z,29.70
2018-09-09T11:49:17.532Z,29.60
2018-09-09T11:51:45.116Z,29.70
2018-09-09T11:56:40.185Z,29.20
2018-09-09T11:59:07.691Z,29.60
2018-09-09T12:01:35.204Z,29.30
2018-09-09T12:04:02.781Z,28.70
2018-09-09T12:06:30.322Z,29.20
2018-09-09T12:08:57.861Z,28.80
2018-09-09T12:11:25.419Z,29.20
2018-09-09T12:13:52.948Z,29.60
2018-09-09T12:16:21.350Z,28.70
2018-09-09T12:21:16.432Z,29.30
2018-09-09T12:26:11.429Z,29.40
2018-09-09T12:28:38.977Z,28.50
2018-09-09T12:31:06.545Z,28.90
2018-09-09T12:33:34.013Z,28.80
2018-09-09T12:36:01.558Z,28.80
2018-09-09T12:38:29.104Z,28.40
2018-09-09T12:40:56.720Z,28.40
2018-09-09T12:43:30.131Z,28.60
2018-09-09T12:46:03.361Z,28.70
2018-09-09T12:48:36.652Z,28.70
2018-09-09T12:51:04.220Z,28.50
2018-09-09T12:53:31.723Z,28.50
2018-09-09T12:55:59.252Z,28.20
2018-09-09T12:58:26.860Z,27.90
2018-09-09T13:00:54.514Z,27.90
2018-09-09T13:03:22.032Z,27.90
2018-09-09T13:05:49.492Z,27.80
2018-09-09T13:08:19.405Z,27.80
2018-09-09T13:10:46.948Z,27.70
2018-09-09T13:13:14.871Z,27.60
2018-09-09T13:15:42.372Z,27.60
2018-09-09T13:18:09.870Z,27.60
2018-09-09T13:20:37.351Z,27.50
2018-09-09T13:23:04.933Z,27.60
2018-09-09T13:25:32.417Z,27.70
2018-09-09T13:27:59.977Z,27.70
2018-09-09T13:30:27.550Z,27.80
2018-09-09T13:32:55.099Z,27.90
2018-09-09T13:35:23.400Z,28.00
2018-09-09T13:37:50.920Z,28.10
2018-09-09T13:40:18.450Z,28.10
2018-09-09T13:42:45.969Z,27.90
2018-09-09T13:45:13.479Z,27.90
2018-09-09T13:47:41.108Z,27.70
2018-09-09T13:50:08.657Z,27.60
2018-09-09T13:52:36.284Z,27.50
2018-09-09T13:55:03.774Z,27.50
2018-09-09T13:57:31.412Z,27.20
2018-09-09T13:59:58.960Z,27.10
2018-09-09T14:02:26.494Z,27.00
2018-09-09T14:04:54.024Z,27.00
2018-09-09T14:07:22.395Z,27.00
2018-09-09T14:09:49.889Z,27.00
2018-09-09T14:12:17.402Z,27.00
2018-09-09T14:14:44.953Z,26.90
2018-09-09T14:17:12.560Z,26.50
2018-09-09T14:19:40.155Z,26.40
2018-09-09T14:22:07.743Z,26.30
2018-09-09T14:24:35.244Z,26.30
2018-09-09T14:27:02.737Z,26.40
2018-09-09T14:29:30.242Z,26.20
2018-09-09T14:31:57.742Z,26.10
2018-09-09T14:34:25.384Z,26.30
2018-09-09T14:36:52.892Z,26.30
2018-09-09T14:39:20.387Z,26.30
2018-09-09T14:41:48.113Z,26.40
2018-09-09T14:44:15.613Z,26.40
2018-09-09T14:46:43.141Z,26.20
2018-09-09T14:49:10.710Z,26.10
2018-09-09T14:51:38.272Z,26.00
2018-09-09T14:54:05.756Z,25.90
2018-09-09T14:56:33.319Z,25.90
2018-09-09T14:59:00.855Z,25.90
2018-09-09T15:01:28.421Z,25.70
2018-09-09T15:03:55.934Z,25.60
2018-09-09T15:06:23.517Z,25.60
2018-09-09T15:08:51.047Z,25.40
2018-09-09T15:11:18.537Z,25.40
2018-09-09T15:13:46.113Z,25.40
2018-09-09T15:16:13.852Z,25.20
2018-09-09T15:18:41.470Z,25.30
2018-09-09T15:21:09.045Z,25.20
2018-09-09T15:23:36.642Z,25.30
2018-09-09T15:26:04.199Z,25.20
2018-09-09T15:28:32.351Z,25.10
2018-09-09T15:30:59.875Z,25.00
2018-09-09T15:35:54.842Z,24.90
2018-09-09T15:38:22.461Z,24.90
2018-09-09T15:40:50.001Z,24.90
2018-09-09T15:43:17.603Z,24.90
2018-09-09T15:45:45.125Z,24.90
2018-09-09T15:48:13.226Z,24.90
2018-09-09T15:50:40.818Z,24.90
2018-09-09T15:53:08.388Z,24.90
2018-09-09T15:55:35.959Z,24.90
2018-09-09T15:58:03.539Z,24.80
2018-09-09T16:00:31.652Z,24.80
2018-09-09T16:02:59.134Z,24.80
2018-09-09T16:05:27.791Z,24.80
2018-09-09T16:07:55.300Z,24.60
2018-09-09T16:10:22.997Z,24.60
2018-09-09T16:12:50.566Z,24.60
2018-09-09T16:15:22.577Z,24.70
2018-09-09T16:17:52.639Z,24.80
2018-09-09T16:20:20.382Z,24.80
2018-09-09T16:22:48.125Z,24.70
2018-09-09T16:25:17.198Z,24.60
2018-09-09T16:27:45.617Z,24.50
2018-09-09T16:30:13.192Z,24.50
2018-09-09T16:32:40.655Z,25.00
2018-09-09T16:35:08.238Z,24.40
2018-09-09T16:37:35.760Z,24.00
2018-09-09T16:40:03.346Z,24.40
2018-09-09T16:44:59.218Z,24.40
2018-09-09T16:47:26.770Z,24.30
2018-09-09T16:49:54.274Z,24.20
2018-09-09T16:52:21.856Z,24.20
2018-09-09T16:54:49.375Z,24.10
2018-09-09T16:57:16.901Z,24.00
2018-09-09T16:59:44.457Z,24.00
2018-09-09T17:02:12.269Z,24.00
2018-09-09T17:04:39.948Z,24.00
2018-09-09T17:07:07.499Z,23.90
2018-09-09T17:09:35.489Z,23.90
2018-09-09T17:12:03.066Z,23.90
2018-09-09T17:14:30.631Z,23.90
2018-09-09T17:16:58.157Z,23.80
2018-09-09T17:19:25.683Z,23.80
2018-09-09T17:21:53.311Z,23.70
2018-09-09T17:24:20.847Z,23.70
2018-09-09T17:26:48.444Z,23.60
2018-09-09T17:29:16.025Z,23.50
2018-09-09T17:31:43.574Z,23.40
2018-09-09T17:34:11.111Z,23.40
2018-09-09T17:36:38.660Z,23.40
2018-09-09T17:39:07.630Z,23.30
2018-09-09T17:41:35.127Z,23.30
2018-09-09T17:44:02.861Z,23.30
2018-09-09T17:46:30.383Z,23.20
2018-09-09T17:48:57.971Z,23.20
2018-09-09T17:51:25.553Z,23.10
2018-09-09T17:53:53.162Z,23.10
2018-09-09T17:56:20.687Z,23.00
2018-09-09T17:58:48.327Z,23.00
2018-09-09T18:01:15.812Z,22.90
2018-09-09T18:03:43.370Z,22.80
2018-09-09T18:06:10.916Z,22.80
2018-09-09T18:08:38.465Z,22.60
2018-09-09T18:11:05.977Z,22.60
2018-09-09T18:13:33.556Z,22.60
2018-09-09T18:16:01.180Z,22.60
2018-09-09T18:18:28.723Z,22.60
2018-09-09T18:20:56.463Z,22.60
2018-09-09T18:23:23.940Z,22.60
2018-09-09T18:25:51.519Z,22.60
2018-09-09T18:28:19.053Z,22.50
2018-09-09T18:30:46.639Z,22.30
2018-09-09T18:33:14.171Z,22.70
2018-09-09T18:35:41.717Z,22.10
2018-09-09T18:38:09.314Z,22.10
2018-09-09T18:40:36.860Z,21.90
2018-09-09T18:43:04.402Z,21.80
2018-09-09T18:45:31.926Z,21.70
2018-09-09T18:47:59.532Z,21.70
2018-09-09T18:50:27.072Z,21.60
2018-09-09T18:52:54.633Z,21.50
2018-09-09T18:55:22.176Z,21.40
2018-09-09T18:57:49.700Z,21.40
2018-09-09T19:00:17.201Z,21.40
2018-09-09T19:02:44.729Z,21.40
2018-09-09T19:05:12.328Z,21.50
2018-09-09T19:07:39.943Z,21.50
2018-09-09T19:10:07.542Z,21.50
2018-09-09T19:12:35.063Z,21.50
2018-09-09T19:15:02.682Z,21.50
2018-09-09T19:17:30.198Z,21.50
2018-09-09T19:19:57.716Z,21.50
2018-09-09T19:22:25.318Z,21.40
2018-09-09T19:24:52.857Z,21.30
2018-09-09T19:27:20.413Z,21.30
2018-09-09T19:29:48.027Z,21.30
2018-09-09T19:32:15.583Z,21.30
2018-09-09T19:34:43.158Z,21.20
2018-09-09T19:37:10.733Z,21.30
2018-09-09T19:39:38.293Z,21.20
2018-09-09T19:44:34.208Z,21.20
2018-09-09T19:47:02.120Z,20.70
2018-09-09T19:51:57.285Z,20.90
2018-09-09T19:54:25.053Z,20.80
2018-09-09T19:56:52.716Z,20.80
2018-09-09T19:59:20.421Z,20.60
2018-09-09T20:01:47.895Z,20.40
2018-09-09T20:04:15.491Z,20.70
2018-09-09T20:06:43.282Z,20.40
2018-09-09T20:09:10.878Z,20.90
2018-09-09T20:14:06.619Z,20.40
2018-09-09T20:16:34.199Z,20.30
2018-09-09T20:19:01.861Z,20.30
2018-09-09T20:21:29.401Z,20.50
2018-09-09T20:23:57.017Z,20.30
2018-09-09T20:31:19.524Z,20.20
2018-09-09T20:36:14.756Z,20.20
2018-09-09T20:38:42.406Z,20.10
2018-09-09T20:41:10.017Z,20.00
2018-09-09T20:43:37.550Z,20.00
2018-09-09T20:46:05.060Z,20.00
2018-09-09T20:48:32.553Z,19.90
2018-09-09T20:51:00.271Z,19.80
2018-09-09T20:53:27.829Z,19.90
2018-09-09T20:55:55.350Z,19.80
2018-09-09T20:58:23.134Z,19.70
2018-09-09T21:00:55.463Z,19.70
2018-09-09T21:03:23.674Z,19.70
2018-09-09T21:08:19.384Z,19.60
2018-09-09T21:10:47.193Z,19.10
2018-09-09T21:13:15.338Z,19.60
2018-09-09T21:15:43.299Z,19.60
2018-09-09T21:18:10.868Z,19.60
2018-09-09T21:20:38.394Z,19.60
2018-09-09T21:23:05.952Z,19.70
2018-09-09T21:25:33.566Z,19.60
2018-09-09T21:30:29.319Z,19.40
2018-09-09T21:32:57.044Z,19.40
2018-09-09T21:35:24.604Z,19.50
2018-09-09T21:37:52.263Z,19.50
2018-09-09T21:40:19.817Z,19.50
2018-09-09T21:42:47.454Z,19.20
2018-09-09T21:45:15.142Z,19.40
2018-09-09T21:47:43.370Z,19.10
2018-09-09T21:50:11.085Z,19.30
2018-09-09T21:52:38.632Z,19.20
2018-09-09T21:55:08.824Z,19.40
2018-09-09T22:00:08.075Z,19.00
2018-09-09T22:05:04.020Z,18.60
2018-09-09T22:07:31.932Z,18.80
2018-09-09T22:17:26.554Z,18.90
2018-09-09T22:22:22.807Z,18.90
2018-09-09T22:24:52.395Z,18.80
2018-09-09T22:27:20.312Z,18.90
2018-09-09T22:29:47.828Z,19.00
2018-09-09T22:34:43.620Z,19.00
2018-09-09T22:37:11.170Z,19.10
2018-09-09T22:39:44.242Z,19.40
2018-09-09T22:44:40.792Z,18.80
2018-09-09T22:47:11.558Z,18.90
2018-09-09T22:49:39.222Z,18.60
2018-09-09T22:52:06.676Z,18.70
2018-09-09T22:57:03.936Z,18.80
2018-09-09T22:59:39.189Z,19.20
2018-09-09T23:02:06.780Z,18.80
2018-09-09T23:07:01.657Z,18.60
2018-09-09T23:09:29.162Z,18.60
2018-09-09T23:16:51.793Z,18.40
2018-09-09T23:21:50.969Z,18.30
2018-09-09T23:24:18.517Z,18.30
2018-09-09T23:26:46.094Z,18.00
2018-09-09T23:29:13.556Z,18.20
2018-09-09T23:39:09.219Z,18.30
2018-09-09T23:41:37.394Z,18.30
2018-09-09T23:44:05.383Z,18.10
2018-09-09T23:46:33.916Z,18.20
2018-09-09T23:56:24.173Z,17.90
